Terminal Aerodrome Forecast
Issued by NWS

Home | Current Version | Previous Version | Graphics & Text | Print | Product List | Glossary On
Versions: 1 2 3 4 5 6 7 8 9 10 11 12 13 14 15 16 17 18 19 20 21 22 23 24 25 26 27 28 29
000
FTUS43 KTOP 142300
TAFFOE
TAF
KFOE 142326Z 1500/1524 13012KT 4SM -RA BR BKN015 OVC025
     FM150300 15009KT P6SM VCSH SCT015 OVC030
     FM151500 21012KT P6SM BKN025
     FM151700 28014G22KT P6SM OVC015=

USA.gov is the U.S. government's official web portal to all federal, state and local government web resources and services.